Time;durP1;ratioP1;P1;durP2;ratioP2;P2;SDS_P1;SDS_P2;PMS_P1;PMS_P2;Temp;Humidity;BMP_temperature;BMP_pressure;BME280_temperature;BME280_humidity;BME280_pressure;Samples;Min_cycle;Max_cycle;Signal;HPM_P1;HPM_P2
2023/05/07 00:01:21;;;;;;;6.97;5.13;;;;;;;11.97;100.00;93812.28;4801975;29;20050;-59
2023/05/07 00:03:47;;;;;;;10.33;5.47;;;;;;;11.80;100.00;93817.72;4801826;29;20047;-58
2023/05/07 00:06:14;;;;;;;8.45;5.72;;;;;;;11.80;100.00;93817.72;4801477;29;20069;-58
2023/05/07 00:08:41;;;;;;;10.32;5.43;;;;;;;11.83;100.00;93818.06;4801434;29;20133;-59
2023/05/07 00:11:08;;;;;;;7.70;5.60;;;;;;;11.84;100.00;93814.88;4802113;29;20050;-58
2023/05/07 00:13:35;;;;;;;8.45;5.40;;;;;;;11.79;100.00;93824.44;4801754;29;20066;-62
2023/05/07 00:16:02;;;;;;;8.23;5.63;;;;;;;11.69;100.00;93816.38;4801584;29;20047;-59
2023/05/07 00:18:30;;;;;;;9.07;5.97;;;;;;;11.75;100.00;93809.19;4801258;29;20069;-57
2023/05/07 00:20:57;;;;;;;9.65;5.20;;;;;;;11.77;100.00;93806.78;4801834;29;20047;-58
2023/05/07 00:23:23;;;;;;;7.32;5.13;;;;;;;11.78;100.00;93806.38;4801741;29;20051;-58
2023/05/07 00:25:50;;;;;;;8.13;5.63;;;;;;;11.80;100.00;93803.19;4801243;29;20332;-62
2023/05/07 00:28:17;;;;;;;8.43;5.83;;;;;;;11.86;100.00;93803.47;4801403;29;20049;-59
2023/05/07 00:30:43;;;;;;;7.85;5.70;;;;;;;11.83;100.00;93801.56;4801240;29;20066;-58
2023/05/07 00:33:10;;;;;;;8.18;5.97;;;;;;;11.84;100.00;93803.13;4801491;29;20057;-59
2023/05/07 00:35:37;;;;;;;9.70;5.55;;;;;;;11.85;100.00;93796.41;4773484;29;20054;-58
2023/05/07 00:38:04;;;;;;;7.95;5.60;;;;;;;11.85;100.00;93799.16;4801393;29;20061;-59
2023/05/07 00:40:30;;;;;;;8.60;5.70;;;;;;;11.77;100.00;93802.09;4801236;29;20047;-63
2023/05/07 00:42:57;;;;;;;10.45;5.38;;;;;;;11.66;100.00;93803.50;4784115;29;20114;-60
2023/05/07 00:45:28;;;;;;;9.45;6.10;;;;;;;11.44;100.00;93801.19;4801076;29;20051;-60
2023/05/07 00:47:57;;;;;;;8.80;5.20;;;;;;;11.44;100.00;93803.19;4800659;29;21850;-61
2023/05/07 00:50:24;;;;;;;8.25;5.82;;;;;;;11.35;100.00;93801.78;4801265;29;20045;-59
2023/05/07 00:52:50;;;;;;;7.87;5.33;;;;;;;11.34;100.00;93799.44;4801169;29;20114;-59
2023/05/07 00:55:18;;;;;;;10.18;5.75;;;;;;;11.45;100.00;93804.72;4785200;29;20042;-58
2023/05/07 00:57:45;;;;;;;10.68;7.00;;;;;;;11.49;100.00;93797.16;4800766;29;20051;-58
2023/05/07 01:00:12;;;;;;;39.95;25.13;;;;;;;11.53;100.00;93786.88;4800504;29;20051;-59
2023/05/07 01:02:41;;;;;;;13.18;9.20;;;;;;;11.58;100.00;93787.16;4800792;29;20051;-59
2023/05/07 01:05:11;;;;;;;8.43;6.47;;;;;;;11.58;100.00;93791.88;4800833;29;20070;-62
2023/05/07 01:07:40;;;;;;;9.57;6.43;;;;;;;11.62;100.00;93791.81;4801170;29;20070;-58
2023/05/07 01:10:08;;;;;;;8.38;6.15;;;;;;;11.64;100.00;93789.41;4800840;29;20047;-59
2023/05/07 01:12:37;;;;;;;9.52;6.20;;;;;;;11.57;100.00;93796.63;4800554;29;20046;-58
2023/05/07 01:15:05;;;;;;;9.48;5.90;;;;;;;11.15;100.00;93787.28;4800238;29;20066;-59
2023/05/07 01:17:40;;;;;;;8.17;5.87;;;;;;;11.07;100.00;93797.63;4769504;29;20051;-58
2023/05/07 01:20:10;;;;;;;7.82;5.80;;;;;;;10.93;100.00;93786.91;4800575;29;20073;-62
2023/05/07 01:22:38;;;;;;;9.13;6.40;;;;;;;10.98;100.00;93794.63;4800697;29;20084;-60
2023/05/07 01:25:07;;;;;;;8.60;6.20;;;;;;;11.08;100.00;93790.91;4800860;29;20046;-59
2023/05/07 01:27:36;;;;;;;8.02;5.63;;;;;;;11.17;100.00;93788.38;4800421;29;20070;-61
2023/05/07 01:30:04;;;;;;;8.60;5.50;;;;;;;11.23;100.00;93787.88;4800921;29;20055;-59
2023/05/07 01:32:41;;;;;;;8.70;5.60;;;;;;;11.23;100.00;93783.19;4800381;29;20055;-63
2023/05/07 01:35:11;;;;;;;8.77;5.80;;;;;;;11.25;100.00;93785.47;4800888;29;20081;-59
2023/05/07 01:37:39;;;;;;;8.43;5.05;;;;;;;11.30;100.00;93785.78;4800551;29;20083;-58
2023/05/07 01:40:07;;;;;;;7.97;5.40;;;;;;;11.31;100.00;93779.09;4800804;29;20047;-58
2023/05/07 01:42:35;;;;;;;8.27;5.50;;;;;;;11.33;100.00;93779.44;4784432;29;20054;-59
2023/05/07 01:45:02;;;;;;;7.28;5.22;;;;;;;11.34;100.00;93775.47;4799567;29;20053;-59
2023/05/07 01:47:29;;;;;;;7.50;5.25;;;;;;;11.29;100.00;93769.69;4778183;29;20047;-59
2023/05/07 01:49:57;;;;;;;8.30;5.20;;;;;;;11.18;100.00;93770.69;4784946;29;20121;-60
2023/05/07 01:52:24;;;;;;;7.30;5.50;;;;;;;11.17;100.00;93773.88;4800723;29;20051;-63
2023/05/07 01:54:51;;;;;;;8.57;5.37;;;;;;;11.16;100.00;93769.56;4800335;29;20047;-60
2023/05/07 01:57:18;;;;;;;8.20;5.30;;;;;;;11.20;100.00;93773.03;4784591;29;20380;-58
2023/05/07 01:59:45;;;;;;;31.73;19.77;;;;;;;11.13;100.00;93775.94;4784382;29;20168;-59
2023/05/07 02:02:11;;;;;;;26.20;15.35;;;;;;;11.15;100.00;93779.03;4800461;29;20062;-60
2023/05/07 02:04:38;;;;;;;11.57;7.93;;;;;;;11.11;100.00;93776.34;4800339;29;20141;-58
2023/05/07 02:07:05;;;;;;;9.87;5.60;;;;;;;10.93;100.00;93773.16;4800414;29;20058;-62
2023/05/07 02:09:32;;;;;;;9.00;5.90;;;;;;;10.89;100.00;93769.72;4800005;29;20087;-58
2023/05/07 02:11:58;;;;;;;7.68;5.60;;;;;;;10.89;100.00;93773.22;4800697;29;20051;-59
2023/05/07 02:14:25;;;;;;;9.02;5.47;;;;;;;10.82;100.00;93775.34;4800266;29;20509;-59
2023/05/07 02:16:52;;;;;;;8.32;5.70;;;;;;;10.73;100.00;93773.91;4800086;29;20106;-61
2023/05/07 02:19:20;;;;;;;8.10;5.50;;;;;;;10.67;100.00;93781.09;4800153;29;20057;-62
2023/05/07 02:21:47;;;;;;;7.47;5.40;;;;;;;10.73;100.00;93789.63;4784332;29;20465;-59
2023/05/07 02:24:14;;;;;;;7.18;5.38;;;;;;;10.66;100.00;93787.75;4800239;29;20135;-61
2023/05/07 02:26:41;;;;;;;8.30;5.47;;;;;;;10.50;100.00;93784.91;4803315;29;20042;-58
2023/05/07 02:29:08;;;;;;;7.18;5.38;;;;;;;10.52;100.00;93785.25;4803430;29;20115;-58
2023/05/07 02:31:34;;;;;;;8.53;5.80;;;;;;;10.52;100.00;93786.06;4786946;29;20054;-58
2023/05/07 02:34:01;;;;;;;8.18;5.90;;;;;;;10.47;100.00;93781.03;4803771;29;20046;-63
2023/05/07 02:36:28;;;;;;;8.45;5.68;;;;;;;10.46;100.00;93782.22;4803716;29;20070;-59
2023/05/07 02:38:55;;;;;;;7.47;5.55;;;;;;;10.47;100.00;93781.03;4802395;29;20902;-58
2023/05/07 02:41:21;;;;;;;8.40;6.20;;;;;;;10.43;100.00;93782.31;4803507;29;20043;-58
2023/05/07 02:43:48;;;;;;;8.00;5.77;;;;;;;10.43;100.00;93787.78;4800971;29;20073;-58
2023/05/07 02:46:15;;;;;;;8.45;5.85;;;;;;;10.35;100.00;93784.38;4802969;29;20057;-59
2023/05/07 02:48:42;;;;;;;9.52;6.05;;;;;;;10.32;100.00;93786.00;4803047;29;20416;-58
2023/05/07 02:51:09;;;;;;;8.40;6.07;;;;;;;10.31;100.00;93791.88;4802939;29;20043;-59
2023/05/07 02:53:36;;;;;;;8.85;6.18;;;;;;;10.28;100.00;93790.75;4802865;29;20110;-58
2023/05/07 02:56:03;;;;;;;8.17;5.47;;;;;;;10.25;100.00;93793.53;4803423;29;20369;-59
2023/05/07 02:58:30;;;;;;;8.35;5.68;;;;;;;10.23;100.00;93798.66;4802612;29;20073;-58
2023/05/07 03:00:57;;;;;;;9.27;5.82;;;;;;;10.20;100.00;93803.78;4803195;29;20074;-58
2023/05/07 03:03:23;;;;;;;7.53;5.38;;;;;;;10.15;100.00;93801.50;4772443;29;20053;-59
2023/05/07 03:05:50;;;;;;;8.38;6.00;;;;;;;10.11;100.00;93792.56;4802918;29;20046;-58
2023/05/07 03:08:17;;;;;;;10.97;5.80;;;;;;;10.06;100.00;93800.47;4786761;29;20099;-58
2023/05/07 03:10:44;;;;;;;15.00;8.70;;;;;;;10.02;100.00;93792.31;4802429;29;20159;-59
2023/05/07 03:13:10;;;;;;;9.50;6.88;;;;;;;9.82;100.00;93800.44;4803012;29;20396;-58
2023/05/07 03:15:37;;;;;;;9.18;6.35;;;;;;;9.84;100.00;93800.00;4786124;29;20086;-62
2023/05/07 03:18:04;;;;;;;8.75;6.00;;;;;;;9.86;100.00;93801.16;4802941;29;20370;-59
2023/05/07 03:20:31;;;;;;;9.00;6.27;;;;;;;9.91;100.00;93792.47;4802163;29;20051;-58
2023/05/07 03:22:58;;;;;;;8.13;6.13;;;;;;;9.91;100.00;93795.19;4802678;29;20046;-58
2023/05/07 03:25:25;;;;;;;9.27;6.35;;;;;;;9.85;100.00;93802.34;4802340;29;20076;-59
2023/05/07 03:27:51;;;;;;;9.73;6.00;;;;;;;9.83;100.00;93793.75;4786226;29;20496;-61
2023/05/07 03:30:18;;;;;;;8.73;6.15;;;;;;;9.81;100.00;93790.66;4785858;29;20126;-61
2023/05/07 03:32:45;;;;;;;9.17;6.23;;;;;;;9.77;100.00;93787.97;4801981;29;20047;-61
2023/05/07 03:35:12;;;;;;;8.73;6.25;;;;;;;9.77;100.00;93795.41;4802716;29;20346;-58
2023/05/07 03:37:39;;;;;;;8.40;6.35;;;;;;;9.73;100.00;93786.47;4801384;29;20043;-58
2023/05/07 03:40:07;;;;;;;8.65;6.10;;;;;;;9.73;100.00;93791.94;4802560;29;20059;-59
2023/05/07 03:42:34;;;;;;;8.73;6.47;;;;;;;9.70;100.00;93792.75;4801993;29;20074;-59
2023/05/07 03:45:01;;;;;;;8.47;6.03;;;;;;;9.70;100.00;93804.50;4801629;29;20065;-59
2023/05/07 03:47:28;;;;;;;9.45;6.30;;;;;;;9.69;100.00;93793.97;4802052;29;20042;-62
2023/05/07 03:49:55;;;;;;;10.20;6.13;;;;;;;9.67;100.00;93804.56;4801560;29;21757;-58
2023/05/07 03:52:25;;;;;;;9.23;6.13;;;;;;;9.63;100.00;93803.84;4786000;29;20042;-59
2023/05/07 03:54:53;;;;;;;11.93;6.30;;;;;;;9.62;100.00;93802.25;4786080;29;20122;-58
2023/05/07 03:57:20;;;;;;;10.17;6.50;;;;;;;9.55;100.00;93800.41;4802106;29;20331;-59
2023/05/07 03:59:46;;;;;;;8.63;6.30;;;;;;;9.56;100.00;93794.53;4801681;29;20055;-58
2023/05/07 04:02:13;;;;;;;8.90;6.05;;;;;;;9.57;100.00;93809.75;4801955;29;20213;-59
2023/05/07 04:04:40;;;;;;;9.70;6.45;;;;;;;9.51;100.00;93803.19;4801732;29;20049;-62
2023/05/07 04:07:07;;;;;;;8.38;6.20;;;;;;;9.55;100.00;93808.63;4802139;29;20061;-61
2023/05/07 04:09:34;;;;;;;8.63;6.47;;;;;;;9.57;100.00;93809.75;4801445;29;20082;-59
2023/05/07 04:12:01;;;;;;;9.57;6.25;;;;;;;9.59;100.00;93806.63;4785907;29;20061;-58
2023/05/07 04:14:27;;;;;;;9.10;5.85;;;;;;;9.65;100.00;93813.19;4801819;29;20050;-58
2023/05/07 04:16:54;;;;;;;9.73;6.30;;;;;;;9.67;100.00;93804.56;4800762;29;20890;-62
2023/05/07 04:19:21;;;;;;;9.20;6.38;;;;;;;9.76;100.00;93804.84;4801560;29;20061;-59
2023/05/07 04:21:48;;;;;;;9.60;6.33;;;;;;;9.78;100.00;93808.72;4801694;29;20058;-58
2023/05/07 04:24:14;;;;;;;8.77;6.32;;;;;;;9.83;100.00;93804.72;4801562;29;20050;-58
2023/05/07 04:26:41;;;;;;;8.68;6.90;;;;;;;9.78;100.00;93816.16;4785340;29;20400;-58
2023/05/07 04:29:08;;;;;;;9.60;6.60;;;;;;;9.83;100.00;93810.19;4801460;29;20102;-59
2023/05/07 04:31:35;;;;;;;8.70;6.60;;;;;;;9.82;100.00;93821.56;4800933;29;20046;-58
2023/05/07 04:34:01;;;;;;;9.67;6.47;;;;;;;9.83;100.00;93821.16;4801887;29;20688;-59
2023/05/07 04:36:29;;;;;;;9.48;6.40;;;;;;;9.98;100.00;93819.00;4800975;29;20055;-57
2023/05/07 04:38:55;;;;;;;12.07;6.65;;;;;;;10.07;100.00;93816.50;4801564;29;20055;-58
2023/05/07 04:41:22;;;;;;;10.73;6.47;;;;;;;10.27;100.00;93813.84;4801469;29;20046;-59
2023/05/07 04:43:49;;;;;;;9.13;6.38;;;;;;;10.36;100.00;93814.16;4801060;29;20055;-62
2023/05/07 04:46:16;;;;;;;12.00;6.17;;;;;;;10.44;100.00;93816.75;4801231;29;20142;-59
2023/05/07 04:48:42;;;;;;;9.15;6.28;;;;;;;10.49;100.00;93810.81;4781872;29;20055;-58
2023/05/07 04:51:09;;;;;;;8.88;6.28;;;;;;;10.61;100.00;93815.69;4800678;29;20062;-58
2023/05/07 04:53:37;;;;;;;9.15;6.20;;;;;;;10.77;100.00;93810.31;4800608;29;20051;-58
2023/05/07 04:56:04;;;;;;;8.32;5.80;;;;;;;10.89;100.00;93819.13;4801509;29;20493;-58
2023/05/07 04:58:31;;;;;;;8.47;6.17;;;;;;;10.96;100.00;93816.25;4784453;29;20388;-61
2023/05/07 05:00:58;;;;;;;8.65;5.70;;;;;;;10.97;100.00;93813.09;4796517;29;20073;-60
2023/05/07 05:03:25;;;;;;;9.55;6.00;;;;;;;11.04;100.00;93816.91;4798575;29;20408;-61
2023/05/07 05:05:52;;;;;;;8.52;5.70;;;;;;;10.74;100.00;93824.09;4800766;29;20073;-58
2023/05/07 05:08:19;;;;;;;8.13;6.20;;;;;;;10.69;100.00;93822.59;4800773;29;20505;-58
2023/05/07 05:10:48;;;;;;;8.80;6.27;;;;;;;10.80;100.00;93833.38;4800849;29;20089;-58
2023/05/07 05:13:15;;;;;;;20.95;11.32;;;;;;;10.85;100.00;93832.91;4800752;29;20054;-59
2023/05/07 05:15:42;;;;;;;23.02;13.18;;;;;;;11.02;100.00;93836.53;4770043;29;20059;-62
2023/05/07 05:18:09;;;;;;;12.00;8.00;;;;;;;11.12;100.00;93834.78;4801211;29;20080;-59
2023/05/07 05:20:35;;;;;;;10.85;6.97;;;;;;;11.12;100.00;93838.31;4783976;29;20049;-59
2023/05/07 05:23:02;;;;;;;9.07;6.63;;;;;;;11.10;100.00;93843.44;4784818;29;20068;-60
2023/05/07 05:25:29;;;;;;;9.07;6.90;;;;;;;11.10;100.00;93840.69;4800366;29;20057;-57
2023/05/07 05:27:56;;;;;;;10.02;7.03;;;;;;;11.22;100.00;93831.06;4801158;29;20451;-59
2023/05/07 05:30:23;;;;;;;10.02;7.13;;;;;;;11.26;100.00;93836.50;4800848;29;20059;-59
2023/05/07 05:32:50;;;;;;;9.13;7.00;;;;;;;11.39;100.00;93831.94;4800548;29;20053;-63
2023/05/07 05:35:18;;;;;;;11.00;6.80;;;;;;;11.46;100.00;93842.00;4788794;29;20050;-59
2023/05/07 05:37:44;;;;;;;8.95;6.72;;;;;;;11.63;100.00;93835.38;4800310;29;20063;-59
2023/05/07 05:40:11;;;;;;;9.32;6.90;;;;;;;11.81;100.00;93837.72;4801091;29;20107;-58
2023/05/07 05:42:38;;;;;;;9.35;6.90;;;;;;;11.59;100.00;93840.94;4800255;29;20051;-59
2023/05/07 05:45:06;;;;;;;10.38;7.90;;;;;;;11.65;100.00;93841.22;4784614;29;20050;-60
2023/05/07 05:47:32;;;;;;;11.23;7.87;;;;;;;12.06;100.00;93842.72;4799792;29;20399;-61
2023/05/07 05:49:59;;;;;;;9.35;7.25;;;;;;;12.59;100.00;93835.19;4800850;29;20058;-59
2023/05/07 05:52:26;;;;;;;8.65;6.93;;;;;;;13.47;100.00;93823.53;4800829;29;20039;-59
2023/05/07 05:54:53;;;;;;;9.77;6.70;;;;;;;15.68;100.00;93817.69;4784330;29;20394;-59
2023/05/07 05:57:20;;;;;;;8.82;6.10;;;;;;;18.54;100.00;93822.88;4800612;29;20053;-59
2023/05/07 05:59:47;;;;;;;6.43;5.50;;;;;;;19.99;96.45;93812.47;4800669;29;20119;-60
2023/05/07 06:02:14;;;;;;;6.50;5.43;;;;;;;20.00;89.31;93814.03;4804175;29;20065;-62
2023/05/07 06:04:42;;;;;;;7.68;5.25;;;;;;;20.63;86.41;93813.81;4803625;29;20369;-59
2023/05/07 06:07:09;;;;;;;8.60;5.40;;;;;;;20.63;82.79;93816.59;4804359;29;20050;-59
2023/05/07 06:09:36;;;;;;;6.68;5.05;;;;;;;21.07;80.99;93815.72;4803506;29;20408;-60
2023/05/07 06:12:03;;;;;;;7.40;4.70;;;;;;;21.87;76.17;93811.84;4803830;29;20039;-59
2023/05/07 06:14:30;;;;;;;5.60;4.90;;;;;;;21.67;75.35;93821.03;4803328;29;20057;-60
2023/05/07 06:16:57;;;;;;;7.63;5.18;;;;;;;21.23;78.71;93820.00;4803444;29;20389;-63
2023/05/07 06:19:23;;;;;;;7.93;4.93;;;;;;;20.31;83.34;93821.13;4803857;29;20056;-59
2023/05/07 06:21:50;;;;;;;7.35;5.15;;;;;;;21.08;80.88;93813.69;4803558;29;20057;-60
2023/05/07 06:24:17;;;;;;;5.93;4.87;;;;;;;21.28;78.07;93812.94;4804084;29;20059;-62
2023/05/07 06:26:44;;;;;;;6.45;5.03;;;;;;;21.46;76.51;93820.28;4803588;29;20103;-59
2023/05/07 06:29:10;;;;;;;7.57;4.85;;;;;;;20.31;82.27;93829.50;4792221;29;20043;-59
2023/05/07 06:31:37;;;;;;;7.70;4.93;;;;;;;21.03;79.59;93815.16;4793892;29;20058;-62
2023/05/07 06:34:04;;;;;;;6.60;4.70;;;;;;;22.36;74.36;93820.50;4803966;29;20080;-60
2023/05/07 06:36:31;;;;;;;6.40;4.90;;;;;;;22.74;71.79;93822.84;4803127;29;20131;-62
2023/05/07 06:38:58;;;;;;;8.00;4.78;;;;;;;22.31;70.82;93821.97;4803735;29;20210;-59
2023/05/07 06:41:25;;;;;;;7.13;5.35;;;;;;;21.51;71.76;93831.53;4802722;29;20057;-59
2023/05/07 06:43:52;;;;;;;8.13;5.47;;;;;;;21.77;71.94;93832.81;4786232;29;20046;-60
2023/05/07 06:46:19;;;;;;;6.13;4.75;;;;;;;23.86;66.05;93830.31;4803341;29;20065;-64
2023/05/07 06:48:45;;;;;;;6.47;5.00;;;;;;;23.39;63.40;93827.06;4803084;29;20059;-60
2023/05/07 06:51:12;;;;;;;8.32;5.20;;;;;;;23.94;63.04;93825.00;4803696;29;20058;-60
2023/05/07 06:53:39;;;;;;;6.65;4.82;;;;;;;25.47;56.92;93822.97;4802873;29;20061;-60
2023/05/07 06:56:06;;;;;;;5.38;4.40;;;;;;;25.32;55.95;93820.47;4803444;29;20524;-61
2023/05/07 06:58:33;;;;;;;5.90;4.63;;;;;;;23.28;62.03;93824.97;4802681;29;20050;-60
2023/05/07 07:00:59;;;;;;;6.83;4.90;;;;;;;22.37;66.69;93831.16;4802871;29;20050;-63
2023/05/07 07:03:26;;;;;;;6.93;5.00;;;;;;;22.14;68.67;93830.19;4803292;29;20113;-60
2023/05/07 07:05:53;;;;;;;6.07;5.20;;;;;;;21.41;73.05;93826.53;4786974;29;20047;-59
2023/05/07 07:08:21;;;;;;;5.95;5.30;;;;;;;20.73;79.40;93831.97;4802730;29;20080;-63
2023/05/07 07:10:48;;;;;;;6.70;5.05;;;;;;;21.27;78.80;93839.28;4802307;29;21559;-59
2023/05/07 07:13:15;;;;;;;7.30;5.53;;;;;;;20.49;82.42;93837.66;4802308;29;20051;-61
2023/05/07 07:15:43;;;;;;;7.60;5.78;;;;;;;21.17;80.83;93838.69;4785949;29;20153;-60
2023/05/07 07:18:10;;;;;;;7.28;5.70;;;;;;;22.78;72.59;93844.19;4802845;29;20386;-60
2023/05/07 07:20:37;;;;;;;6.90;5.60;;;;;;;25.23;61.67;93840.41;4785941;29;20117;-60
2023/05/07 07:23:03;;;;;;;5.97;5.05;;;;;;;25.91;59.87;93840.97;4802765;29;20146;-62
2023/05/07 07:25:30;;;;;;;6.93;4.80;;;;;;;24.78;59.91;93840.44;4802134;29;20061;-59
2023/05/07 07:27:57;;;;;;;6.53;4.45;;;;;;;25.45;59.23;93831.16;4802899;29;20047;-61
2023/05/07 07:30:23;;;;;;;6.05;4.43;;;;;;;25.33;56.88;93840.88;4766994;30;20061;-63
2023/05/07 07:32:51;;;;;;;6.03;4.13;;;;;;;26.67;53.78;93833.88;4801184;29;20047;-62
2023/05/07 07:35:18;;;;;;;6.65;4.47;;;;;;;28.90;47.97;93820.25;4802800;29;20049;-62
2023/05/07 07:37:44;;;;;;;6.73;4.10;;;;;;;30.88;41.43;93822.69;4801708;29;20062;-61
2023/05/07 07:40:11;;;;;;;5.70;4.53;;;;;;;30.42;39.47;93823.75;4786197;29;20046;-64
2023/05/07 07:42:39;;;;;;;7.13;4.38;;;;;;;28.53;42.73;93822.59;4801868;29;20047;-61
2023/05/07 07:45:06;;;;;;;6.13;4.57;;;;;;;28.67;42.96;93820.59;4786233;29;20054;-62
2023/05/07 07:47:33;;;;;;;5.70;4.75;;;;;;;29.80;41.27;93825.06;4801433;29;20051;-62
2023/05/07 07:49:59;;;;;;;7.50;4.57;;;;;;;28.74;40.49;93817.16;4802777;29;20123;-61
2023/05/07 07:52:26;;;;;;;5.30;4.10;;;;;;;28.67;41.66;93827.03;4802223;29;20043;-61
2023/05/07 07:54:53;;;;;;;5.38;3.97;;;;;;;27.88;41.50;93818.88;4802010;29;20065;-60
2023/05/07 07:57:19;;;;;;;5.47;3.47;;;;;;;30.17;37.20;93822.50;4802094;29;20054;-62
2023/05/07 07:59:46;;;;;;;5.70;3.60;;;;;;;29.52;38.82;93825.59;4801570;29;20141;-61
2023/05/07 08:02:13;;;;;;;5.50;3.57;;;;;;;29.26;38.85;93823.50;4786326;29;20458;-61
2023/05/07 08:04:39;;;;;;;5.00;3.67;;;;;;;26.79;43.21;93825.34;4801594;29;20099;-63
2023/05/07 08:07:06;;;;;;;5.35;3.55;;;;;;;25.94;42.90;93825.88;4802203;29;20114;-60
2023/05/07 08:09:33;;;;;;;5.00;3.33;;;;;;;27.00;42.34;93834.88;4801412;29;20054;-60
2023/05/07 08:12:01;;;;;;;5.85;3.70;;;;;;;26.94;41.28;93831.34;4802337;29;20059;-64
2023/05/07 08:14:28;;;;;;;6.40;3.80;;;;;;;26.55;42.81;93835.22;4801596;29;20131;-62
2023/05/07 08:16:55;;;;;;;6.20;3.42;;;;;;;26.97;43.11;93838.00;4785147;29;20679;-64
2023/05/07 08:19:22;;;;;;;5.13;3.50;;;;;;;27.14;41.93;93835.00;4801441;29;20059;-61
2023/05/07 08:21:49;;;;;;;6.18;3.40;;;;;;;28.79;39.95;93829.66;4800989;29;20059;-60
2023/05/07 08:24:16;;;;;;;4.63;3.00;;;;;;;30.81;35.76;93827.75;4801503;29;20055;-61
2023/05/07 08:26:44;;;;;;;4.83;3.10;;;;;;;29.62;37.39;93837.19;4785098;29;20347;-61
2023/05/07 08:29:12;;;;;;;5.25;3.50;;;;;;;30.04;36.26;93832.53;4800247;29;20046;-60
2023/05/07 08:31:39;;;;;;;5.75;3.40;;;;;;;29.90;35.99;93833.09;4801079;29;20222;-61
2023/05/07 08:34:06;;;;;;;4.82;3.28;;;;;;;27.61;39.65;93834.81;4801480;29;20074;-64
2023/05/07 08:36:35;;;;;;;4.95;3.33;;;;;;;27.91;41.10;93819.84;4800809;29;20062;-64
2023/05/07 08:39:02;;;;;;;4.43;3.33;;;;;;;27.17;41.02;93825.50;4801850;29;20047;-61
2023/05/07 08:41:29;;;;;;;5.05;3.10;;;;;;;27.29;41.96;93822.06;4800961;29;20047;-63
2023/05/07 08:43:59;;;;;;;4.47;3.10;;;;;;;26.68;41.90;93831.81;4785350;29;20053;-60
2023/05/07 08:46:31;;;;;;;4.20;2.70;;;;;;;27.61;40.85;93826.34;4801550;29;20061;-67
2023/05/07 08:48:58;;;;;;;4.25;3.03;;;;;;;26.57;41.92;93843.13;4800424;29;20125;-63
2023/05/07 08:51:25;;;;;;;4.20;3.03;;;;;;;26.19;44.74;93835.19;4785267;29;20108;-61
2023/05/07 08:53:52;;;;;;;3.42;1.90;;;;;;;28.24;37.00;93825.03;4800616;29;20057;-61
2023/05/07 08:56:20;;;;;;;3.50;2.50;;;;;;;28.21;38.35;93833.81;4785292;29;20524;-60
2023/05/07 08:58:48;;;;;;;3.10;2.47;;;;;;;26.33;40.51;93832.56;4800511;29;20069;-60
2023/05/07 09:01:16;;;;;;;4.32;2.40;;;;;;;26.34;41.49;93836.88;4801509;29;20057;-60
2023/05/07 09:03:46;;;;;;;4.77;2.30;;;;;;;26.95;39.88;93829.31;4800611;29;20109;-60
2023/05/07 09:06:13;;;;;;;4.38;2.50;;;;;;;27.73;39.01;93833.38;4785054;29;20074;-60
2023/05/07 09:08:40;;;;;;;3.80;2.50;;;;;;;29.23;36.32;93825.31;4800237;29;20451;-60
2023/05/07 09:11:07;;;;;;;3.40;2.50;;;;;;;26.65;40.02;93838.50;4800742;29;20050;-60
2023/05/07 09:13:34;;;;;;;3.90;2.38;;;;;;;27.07;39.16;93833.53;4800641;29;20058;-62
2023/05/07 09:16:10;;;;;;;4.13;2.50;;;;;;;25.84;41.12;93825.38;4801094;29;20413;-60
2023/05/07 09:18:44;;;;;;;4.00;2.40;;;;;;;27.07;39.02;93830.72;4800420;29;20449;-63
2023/05/07 09:21:15;;;;;;;2.90;2.20;;;;;;;26.93;38.34;93834.69;4800980;29;20117;-60
2023/05/07 09:23:42;;;;;;;4.68;2.80;;;;;;;26.98;38.69;93828.25;4800601;29;20055;-61
2023/05/07 09:26:11;;;;;;;3.70;2.70;;;;;;;26.33;40.31;93822.06;4801250;29;20519;-62
2023/05/07 09:28:41;;;;;;;3.73;2.40;;;;;;;28.57;37.21;93820.22;4798814;29;20067;-60
2023/05/07 09:31:09;;;;;;;3.65;2.40;;;;;;;26.78;39.17;93829.44;4797932;29;20050;-63
2023/05/07 09:33:37;;;;;;;3.25;2.30;;;;;;;28.85;36.40;93819.78;4800209;29;20111;-60
2023/05/07 09:36:05;;;;;;;4.05;2.20;;;;;;;28.80;36.40;93825.53;4803250;29;20099;-60
2023/05/07 09:38:33;;;;;;;3.30;2.20;;;;;;;29.05;34.97;93824.06;4803929;29;20409;-60
2023/05/07 09:41:09;;;;;;;4.27;2.30;;;;;;;29.25;35.58;93822.72;4804756;29;20050;-60
2023/05/07 09:43:37;;;;;;;4.05;2.88;;;;;;;28.05;37.10;93822.25;4803825;29;20054;-61
2023/05/07 09:46:12;;;;;;;3.55;2.67;;;;;;;28.41;36.45;93821.22;4804552;29;20393;-60
2023/05/07 09:48:41;;;;;;;4.22;2.50;;;;;;;28.46;35.95;93826.03;4803762;29;20054;-60
2023/05/07 09:51:38;;;;;;;3.65;2.60;;;;;;;29.41;35.40;93820.13;4803971;29;20051;-61
2023/05/07 09:54:04;;;;;;;4.53;2.80;;;;;;;28.50;37.27;93826.50;4787292;29;20043;-60
2023/05/07 09:56:32;;;;;;;4.35;2.78;;;;;;;28.26;35.84;93825.28;4803291;29;20039;-61
2023/05/07 09:59:03;;;;;;;4.20;2.80;;;;;;;27.57;38.30;93828.69;4804326;29;20119;-63
2023/05/07 10:01:31;;;;;;;4.25;2.97;;;;;;;26.42;40.77;93823.78;4804084;29;20077;-62
2023/05/07 10:03:58;;;;;;;4.00;2.90;;;;;;;26.96;41.08;93828.00;4804323;29;20134;-60
2023/05/07 10:06:26;;;;;;;3.93;2.90;;;;;;;27.83;39.02;93811.97;4803973;29;20396;-60
2023/05/07 10:08:54;;;;;;;4.40;2.88;;;;;;;28.26;38.10;93818.88;4803841;29;20053;-62
2023/05/07 10:11:22;;;;;;;5.00;3.10;;;;;;;27.70;38.54;93803.41;4804118;29;20489;-64
2023/05/07 10:13:48;;;;;;;3.95;2.85;;;;;;;27.53;39.14;93806.44;4803439;29;20059;-63
2023/05/07 10:16:16;;;;;;;3.85;2.67;;;;;;;28.95;37.12;93794.72;4803937;29;20047;-60
2023/05/07 10:18:43;;;;;;;4.17;2.93;;;;;;;28.45;36.75;93790.63;4803543;29;20568;-60
2023/05/07 10:21:18;;;;;;;5.22;2.92;;;;;;;27.69;37.90;93788.56;4803545;29;20077;-60
2023/05/07 10:23:49;;;;;;;4.10;2.85;;;;;;;27.73;39.30;93784.66;4803061;29;20053;-64
2023/05/07 10:26:20;;;;;;;4.53;2.85;;;;;;;27.56;39.61;93793.34;4803890;29;20057;-62
2023/05/07 10:28:53;;;;;;;3.50;2.63;;;;;;;27.53;38.95;93788.75;4801412;29;20461;-60
2023/05/07 10:31:44;;;;;;;3.90;3.20;;;;;;;27.44;39.08;93790.66;4772438;30;20138;-60
2023/05/07 10:34:19;;;;;;;3.63;2.92;;;;;;;27.26;40.37;93786.50;4802386;29;21727;-60
2023/05/07 10:36:46;;;;;;;4.40;3.20;;;;;;;27.18;40.78;93776.31;4802922;29;20111;-60
2023/05/07 10:39:13;;;;;;;4.40;3.30;;;;;;;26.67;42.46;93774.75;4803728;29;20078;-60
2023/05/07 10:41:40;;;;;;;4.22;3.33;;;;;;;26.75;41.35;93777.00;4803044;29;20050;-63
2023/05/07 10:44:07;;;;;;;6.50;3.40;;;;;;;24.51;45.95;93787.38;4803364;29;20474;-60
2023/05/07 10:46:35;;;;;;;6.15;3.67;;;;;;;24.11;47.34;93771.78;4802454;29;20047;-62
2023/05/07 10:49:02;;;;;;;5.18;3.60;;;;;;;25.11;47.04;93772.22;4803225;29;20069;-60
2023/05/07 10:51:31;;;;;;;5.97;3.50;;;;;;;26.53;44.43;93766.66;4803014;29;20055;-58
2023/05/07 10:54:09;;;;;;;4.50;3.53;;;;;;;25.99;46.21;93768.06;4802926;29;20043;-61
2023/05/07 10:56:40;;;;;;;5.03;3.83;;;;;;;25.46;46.08;93766.00;4786487;29;20114;-60
2023/05/07 10:59:30;;;;;;;6.15;3.72;;;;;;;25.73;46.66;93774.81;4802861;29;20073;-60
2023/05/07 11:02:03;;;;;;;5.53;4.07;;;;;;;25.58;46.78;93769.53;4801878;29;21311;-60
2023/05/07 11:04:34;;;;;;;5.80;4.03;;;;;;;24.31;50.70;93767.97;4802843;29;20059;-59
2023/05/07 11:07:11;;;;;;;5.38;4.00;;;;;;;25.35;49.98;93784.97;4803027;29;20481;-61
2023/05/07 11:09:52;;;;;;;7.17;3.90;;;;;;;24.19;51.16;93797.28;4801903;29;20051;-60
2023/05/07 11:12:42;;;;;;;7.30;3.88;;;;;;;24.15;52.10;93805.94;4803092;29;20047;-63
2023/05/07 11:15:10;;;;;;;5.25;4.00;;;;;;;24.05;52.12;93810.25;4774838;29;20059;-60
2023/05/07 11:17:58;;;;;;;5.03;3.90;;;;;;;24.04;53.13;93814.31;4801943;29;20055;-63
2023/05/07 11:20:50;;;;;;;5.35;4.10;;;;;;;24.06;53.41;93815.34;4803142;29;20061;-59
2023/05/07 11:23:32;;;;;;;5.20;4.40;;;;;;;23.23;56.00;93811.72;4791060;29;20624;-59
2023/05/07 11:26:08;;;;;;;5.75;4.22;;;;;;;23.03;57.52;93809.06;4801785;29;20816;-60
2023/05/07 11:28:40;;;;;;;5.93;4.15;;;;;;;23.33;56.02;93799.03;4801234;29;20066;-65
2023/05/07 11:31:07;;;;;;;5.80;3.90;;;;;;;23.45;54.77;93794.25;4799178;29;20047;-59
2023/05/07 11:33:35;;;;;;;5.10;3.80;;;;;;;23.13;55.09;93796.38;4802012;29;20042;-60